createdAt,value
2023-05-05T00:00:41.288Z,90.55
2023-05-05T00:01:41.337Z,90.95
2023-05-05T00:02:41.511Z,90.55
2023-05-05T00:03:41.579Z,90.47
2023-05-05T00:04:41.601Z,90.62
2023-05-05T00:05:41.676Z,89.98
2023-05-05T00:06:41.766Z,90.96
2023-05-05T00:07:41.856Z,90.37
2023-05-05T00:08:41.934Z,89.51
2023-05-05T00:09:42.024Z,90.42
2023-05-05T00:10:42.113Z,90.52
2023-05-05T00:11:42.190Z,89.54
2023-05-05T00:12:42.408Z,91.25
2023-05-05T00:13:42.369Z,89.48
2023-05-05T00:14:42.465Z,89.33
2023-05-05T00:15:42.568Z,89.63
2023-05-05T00:16:42.665Z,89.56
2023-05-05T00:17:42.737Z,90.16
2023-05-05T00:18:42.802Z,89.75
2023-05-05T00:19:42.894Z,89.13
2023-05-05T00:20:43.000Z,89.58
2023-05-05T00:21:43.055Z,88.00
2023-05-05T00:22:43.151Z,89.42
2023-05-05T00:23:43.305Z,89.02
2023-05-05T00:24:43.314Z,87.72
2023-05-05T00:25:43.416Z,89.06
2023-05-05T00:26:43.487Z,88.43
2023-05-05T00:27:43.658Z,88.65
2023-05-05T00:28:43.663Z,88.77
2023-05-05T00:29:43.748Z,88.83
2023-05-05T00:30:43.834Z,87.32
2023-05-05T00:31:43.972Z,88.06
2023-05-05T00:32:44.043Z,88.58
2023-05-05T00:33:44.089Z,88.12
2023-05-05T00:34:44.171Z,87.68
2023-05-05T00:35:44.305Z,86.68
2023-05-05T00:36:45.356Z,88.36
2023-05-05T00:37:44.426Z,86.57
2023-05-05T00:38:44.513Z,88.26
2023-05-05T00:39:44.602Z,87.73
2023-05-05T00:40:44.815Z,87.18
2023-05-05T00:41:44.764Z,88.93
2023-05-05T00:42:44.853Z,88.01
2023-05-05T00:43:44.932Z,88.13
2023-05-05T00:44:45.034Z,88.36
2023-05-05T00:45:45.095Z,87.78
2023-05-05T00:46:45.224Z,87.73
2023-05-05T00:47:45.283Z,86.65
2023-05-05T00:48:45.350Z,86.88
2023-05-05T00:49:45.482Z,87.07
2023-05-05T00:50:45.515Z,88.63
2023-05-05T00:51:45.615Z,87.06
2023-05-05T00:52:45.690Z,86.68
2023-05-05T00:53:45.762Z,86.59
2023-05-05T00:54:45.872Z,87.86
2023-05-05T00:55:46.001Z,88.65
2023-05-05T00:56:46.807Z,85.46
2023-05-05T00:57:46.131Z,87.71
2023-05-05T00:58:46.202Z,86.20
2023-05-05T00:59:46.323Z,85.94
2023-05-05T01:00:46.372Z,86.77
2023-05-05T01:01:46.533Z,86.07
2023-05-05T01:02:46.749Z,86.90
2023-05-05T01:03:46.685Z,86.52
2023-05-05T01:04:46.705Z,85.48
2023-05-05T01:05:46.793Z,86.89
2023-05-05T01:06:46.889Z,83.86
2023-05-05T01:07:46.972Z,85.70
2023-05-05T01:08:47.050Z,85.95
2023-05-05T01:09:47.142Z,84.09
2023-05-05T01:10:47.226Z,86.45
2023-05-05T01:11:47.378Z,86.30
2023-05-05T01:12:47.464Z,85.85
2023-05-05T01:13:47.557Z,85.46
2023-05-05T01:14:47.669Z,84.41
2023-05-05T01:15:47.684Z,83.37
2023-05-05T01:16:47.773Z,84.16
2023-05-05T01:17:47.912Z,84.32
2023-05-05T01:18:47.953Z,84.93
2023-05-05T01:19:48.036Z,85.06
2023-05-05T01:20:48.147Z,83.71
2023-05-05T01:21:48.234Z,82.85
2023-05-05T01:22:48.331Z,83.26
2023-05-05T01:23:48.470Z,83.84
2023-05-05T01:24:48.508Z,84.95
2023-05-05T01:25:48.593Z,84.22
2023-05-05T01:26:48.686Z,82.95
2023-05-05T01:27:48.772Z,84.85
2023-05-05T01:28:48.870Z,84.50
2023-05-05T01:29:48.975Z,83.45
2023-05-05T01:30:49.053Z,83.48
2023-05-05T01:31:49.185Z,82.92
2023-05-05T01:32:49.263Z,82.34
2023-05-05T01:33:49.311Z,82.57
2023-05-05T01:34:49.392Z,83.38
2023-05-05T01:35:49.490Z,81.26
2023-05-05T01:36:49.564Z,82.09
2023-05-05T01:37:49.661Z,81.55
2023-05-05T01:38:49.725Z,82.90
2023-05-05T01:39:49.844Z,81.68
2023-05-05T01:40:49.908Z,81.24
2023-05-05T01:41:49.988Z,80.88
2023-05-05T01:42:50.079Z,80.30
2023-05-05T01:43:50.158Z,79.68
2023-05-05T01:44:50.249Z,79.59
2023-05-05T01:45:50.438Z,79.84
2023-05-05T01:46:50.436Z,79.02
2023-05-05T01:47:50.534Z,81.07
2023-05-05T01:48:50.629Z,79.57
2023-05-05T01:49:50.731Z,80.09
2023-05-05T01:50:50.814Z,79.62
2023-05-05T01:51:50.910Z,77.47
2023-05-05T01:52:51.340Z,78.67
2023-05-05T01:53:51.087Z,79.90
2023-05-05T01:54:51.179Z,78.70
2023-05-05T01:55:51.259Z,78.66
2023-05-05T01:56:51.835Z,77.78
2023-05-05T01:57:51.442Z,77.73
2023-05-05T01:58:51.543Z,79.07
2023-05-05T01:59:51.640Z,78.97
2023-05-05T02:00:51.755Z,78.16
2023-05-05T02:01:51.903Z,78.24
2023-05-05T02:02:51.952Z,77.72
2023-05-05T02:03:51.985Z,77.54
2023-05-05T02:04:52.071Z,77.54
2023-05-05T02:05:52.169Z,79.07
2023-05-05T02:06:52.231Z,77.97
2023-05-05T02:07:52.328Z,77.59
2023-05-05T02:08:52.378Z,77.03
2023-05-05T02:09:52.452Z,76.52
2023-05-05T02:10:52.527Z,77.28
2023-05-05T02:11:52.704Z,77.83
2023-05-05T02:12:52.791Z,75.98
2023-05-05T02:13:52.795Z,76.21
2023-05-05T02:14:52.868Z,75.28
2023-05-05T02:15:53.011Z,77.50
2023-05-05T02:16:53.099Z,78.08
2023-05-05T02:17:53.219Z,76.55
2023-05-05T02:18:53.176Z,76.76
2023-05-05T02:19:53.289Z,76.85
2023-05-05T02:20:53.371Z,77.34
2023-05-05T02:21:53.452Z,76.73
2023-05-05T02:22:53.518Z,76.85
2023-05-05T02:23:53.610Z,76.64
2023-05-05T02:24:53.660Z,76.90
2023-05-05T02:25:53.773Z,76.37
2023-05-05T02:26:53.846Z,76.44
2023-05-05T02:27:53.954Z,75.98
2023-05-05T02:28:54.040Z,77.30
2023-05-05T02:29:54.111Z,75.13
2023-05-05T02:30:56.889Z,77.49
2023-05-05T02:31:54.234Z,76.98
2023-05-05T02:32:54.335Z,76.37
2023-05-05T02:33:54.280Z,75.34
2023-05-05T02:34:54.309Z,76.49
2023-05-05T02:35:54.330Z,76.99
2023-05-05T02:36:54.357Z,75.74
2023-05-05T02:37:54.379Z,75.50
2023-05-05T02:38:54.412Z,76.27
2023-05-05T02:39:54.414Z,75.63
2023-05-05T02:40:54.455Z,75.01
2023-05-05T02:41:54.530Z,75.46
2023-05-05T02:42:54.577Z,75.40
2023-05-05T02:43:54.523Z,76.21
2023-05-05T02:44:54.549Z,75.01
2023-05-05T02:45:54.568Z,74.88
2023-05-05T02:46:54.728Z,75.76
2023-05-05T02:47:54.639Z,75.22
2023-05-05T02:48:54.623Z,75.16
2023-05-05T02:49:54.643Z,74.36
2023-05-05T02:50:54.669Z,75.45
2023-05-05T02:51:54.709Z,76.11
2023-05-05T02:52:54.709Z,75.40
2023-05-05T02:53:54.739Z,75.36
2023-05-05T02:54:54.831Z,75.14
2023-05-05T02:55:54.773Z,75.14
2023-05-05T02:56:54.795Z,75.57
2023-05-05T02:57:54.808Z,75.60
2023-05-05T02:58:54.824Z,75.27
2023-05-05T02:59:54.844Z,72.10
2023-05-05T03:00:54.930Z,72.21
2023-05-05T03:01:54.933Z,73.36
2023-05-05T03:02:55.005Z,72.90
2023-05-05T03:03:54.975Z,73.13
2023-05-05T03:04:54.987Z,73.51
2023-05-05T03:05:54.965Z,73.14
2023-05-05T03:06:55.007Z,73.17
2023-05-05T03:07:55.373Z,73.45
2023-05-05T03:08:55.040Z,73.23
2023-05-05T03:09:55.051Z,72.70
2023-05-05T03:10:55.085Z,75.02
2023-05-05T03:11:55.105Z,73.35
2023-05-05T03:12:55.184Z,73.21
2023-05-05T03:13:55.172Z,73.33
2023-05-05T03:14:55.882Z,75.30
2023-05-05T03:15:55.354Z,74.59
2023-05-05T03:16:55.406Z,72.14
2023-05-05T03:17:55.578Z,73.97
2023-05-05T03:18:55.520Z,73.51
2023-05-05T03:19:55.611Z,73.20
2023-05-05T03:20:55.715Z,72.57
2023-05-05T03:21:55.790Z,72.49
2023-05-05T03:22:56.867Z,73.52
2023-05-05T03:23:55.965Z,71.90
2023-05-05T03:24:56.025Z,71.73
2023-05-05T03:25:56.086Z,72.20
2023-05-05T03:26:56.165Z,70.30
2023-05-05T03:27:56.238Z,71.82
2023-05-05T03:28:56.304Z,73.42
2023-05-05T03:29:56.471Z,72.38
2023-05-05T03:30:56.473Z,72.10
2023-05-05T03:31:56.567Z,70.55
2023-05-05T03:32:56.629Z,71.00
2023-05-05T03:33:56.645Z,72.51
2023-05-05T03:34:56.789Z,71.53
2023-05-05T03:35:56.828Z,70.95
2023-05-05T03:36:56.826Z,71.73
2023-05-05T03:37:56.914Z,71.78
2023-05-05T03:38:56.968Z,70.63
2023-05-05T03:39:57.032Z,69.52
2023-05-05T03:40:57.106Z,72.75
2023-05-05T03:41:57.169Z,70.06
2023-05-05T03:42:57.226Z,72.09
2023-05-05T03:43:57.300Z,71.07
2023-05-05T03:44:57.366Z,71.31
2023-05-05T03:45:57.494Z,70.76
2023-05-05T03:46:57.631Z,70.58
2023-05-05T03:47:57.639Z,71.39
2023-05-05T03:48:57.718Z,71.13
2023-05-05T03:49:57.795Z,71.01
2023-05-05T03:50:57.844Z,72.13
2023-05-05T03:51:57.895Z,70.73
2023-05-05T03:52:57.963Z,70.71
2023-05-05T03:53:57.991Z,70.97
2023-05-05T03:54:58.025Z,70.19
2023-05-05T03:55:58.064Z,70.58
2023-05-05T03:56:58.113Z,71.55
2023-05-05T03:57:58.168Z,69.65
2023-05-05T03:58:58.237Z,69.93
2023-05-05T03:59:58.277Z,69.94
2023-05-05T04:00:58.330Z,69.56
2023-05-05T04:01:58.355Z,69.51
2023-05-05T04:02:58.469Z,69.06
2023-05-05T04:03:58.404Z,70.43
2023-05-05T04:04:58.416Z,69.16
2023-05-05T04:05:58.435Z,69.53
2023-05-05T04:06:58.486Z,69.96
2023-05-05T04:07:58.498Z,68.45
2023-05-05T04:08:58.517Z,68.49
2023-05-05T04:09:58.564Z,69.54
2023-05-05T04:10:58.923Z,68.69
2023-05-05T04:11:58.618Z,68.94
2023-05-05T04:12:58.698Z,70.17
2023-05-05T04:13:58.676Z,68.37
2023-05-05T04:14:58.707Z,67.56
2023-05-05T04:15:58.738Z,68.11
2023-05-05T04:16:58.745Z,68.11
2023-05-05T04:17:58.842Z,68.52
2023-05-05T04:18:58.792Z,68.21
2023-05-05T04:19:58.825Z,68.73
2023-05-05T04:20:58.852Z,68.07
2023-05-05T04:21:58.851Z,68.04
2023-05-05T04:22:58.885Z,68.44
2023-05-05T04:23:58.961Z,67.58
2023-05-05T04:24:58.937Z,66.34
2023-05-05T04:25:59.002Z,69.67
2023-05-05T04:26:59.016Z,66.90
2023-05-05T04:27:59.061Z,66.59
2023-05-05T04:28:59.100Z,67.12
2023-05-05T04:29:59.152Z,66.63
2023-05-05T04:30:59.180Z,67.44
2023-05-05T04:31:59.194Z,66.18
2023-05-05T04:32:59.249Z,66.99
2023-05-05T04:33:59.250Z,66.14
2023-05-05T04:34:59.290Z,66.91
2023-05-05T04:35:59.318Z,65.55
2023-05-05T04:36:59.350Z,66.27
2023-05-05T04:37:59.367Z,66.25
2023-05-05T04:38:59.494Z,65.91
2023-05-05T04:39:59.408Z,65.63
2023-05-05T04:40:59.456Z,65.14
2023-05-05T04:41:59.456Z,65.32
2023-05-05T04:42:59.500Z,65.06
2023-05-05T04:43:59.527Z,63.84
2023-05-05T04:44:59.618Z,65.40
2023-05-05T04:45:59.579Z,63.56
2023-05-05T04:46:59.607Z,63.99
2023-05-05T04:47:59.762Z,65.51
2023-05-05T04:48:59.661Z,64.68
2023-05-05T04:49:59.694Z,65.08
2023-05-05T04:50:59.729Z,65.19
2023-05-05T04:51:59.763Z,65.46
2023-05-05T04:52:59.869Z,66.73
2023-05-05T04:53:59.851Z,63.93
2023-05-05T04:54:59.926Z,65.66
2023-05-05T04:55:59.881Z,64.70
2023-05-05T04:56:59.905Z,64.04
2023-05-05T04:57:59.955Z,63.66
2023-05-05T04:58:59.969Z,64.14
2023-05-05T04:59:59.983Z,64.00
2023-05-05T05:01:00.005Z,63.65
2023-05-05T05:02:00.085Z,64.42
2023-05-05T05:03:00.150Z,64.54
2023-05-05T05:04:00.340Z,63.68
2023-05-05T05:05:00.160Z,63.82
2023-05-05T05:06:00.150Z,63.79
2023-05-05T05:07:00.170Z,63.79
2023-05-05T05:08:00.203Z,62.78
2023-05-05T05:09:00.225Z,63.13
2023-05-05T05:10:00.260Z,61.89
2023-05-05T05:11:00.292Z,62.15
2023-05-05T05:12:00.314Z,63.85
2023-05-05T05:13:00.373Z,61.82
2023-05-05T05:14:00.361Z,61.37
2023-05-05T05:15:00.512Z,62.40
2023-05-05T05:16:00.551Z,61.59
2023-05-05T05:17:00.468Z,62.64
2023-05-05T05:18:00.521Z,61.56
2023-05-05T05:19:01.798Z,51.44
2023-05-05T05:20:01.559Z,49.67
2023-05-05T05:21:00.596Z,45.37
2023-05-05T05:22:00.668Z,45.88
2023-05-05T05:23:00.654Z,49.34
2023-05-05T05:24:00.892Z,45.58
2023-05-05T05:25:00.697Z,54.04
2023-05-05T05:26:00.733Z,51.54
2023-05-05T05:27:00.761Z,50.77
2023-05-05T05:28:09.448Z,18.69
2023-05-05T05:29:01.824Z,19.26
2023-05-05T05:30:01.139Z,21.19
2023-05-05T05:31:00.886Z,23.31
2023-05-05T05:32:01.093Z,26.13
2023-05-05T05:33:00.961Z,0.00
2023-05-05T05:34:01.198Z,8.12
2023-05-05T05:35:01.024Z,0.00
2023-05-05T05:36:01.073Z,0.00
2023-05-05T05:37:01.183Z,0.00
2023-05-05T05:38:01.177Z,0.00
2023-05-05T05:39:01.209Z,12.91
2023-05-05T05:40:01.265Z,24.03
2023-05-05T05:41:01.319Z,25.81
2023-05-05T05:42:01.445Z,26.59
2023-05-05T05:43:01.586Z,25.51
2023-05-05T05:44:01.683Z,25.07
2023-05-05T05:45:01.795Z,26.60
2023-05-05T05:46:01.947Z,29.63
2023-05-05T05:47:02.002Z,31.41
2023-05-05T05:48:02.156Z,24.21
2023-05-05T05:49:02.242Z,26.20
2023-05-05T05:50:02.309Z,30.91
2023-05-05T05:51:02.423Z,30.40
2023-05-05T05:52:02.519Z,30.77
2023-05-05T05:53:02.618Z,27.82
2023-05-05T05:54:02.717Z,34.17
2023-05-05T05:55:02.823Z,28.73
2023-05-05T05:56:03.851Z,34.10
2023-05-05T05:57:03.030Z,30.42
2023-05-05T05:58:03.105Z,35.86
2023-05-05T05:59:03.190Z,30.24
2023-05-05T06:00:03.281Z,27.55
2023-05-05T06:01:03.372Z,26.10
2023-05-05T06:02:03.484Z,27.52
2023-05-05T06:03:03.581Z,25.00
2023-05-05T06:04:03.744Z,28.56
2023-05-05T06:05:04.447Z,27.86
2023-05-05T06:06:03.841Z,27.43
2023-05-05T06:07:03.946Z,25.00
2023-05-05T06:08:04.055Z,26.22
2023-05-05T06:09:04.177Z,32.55
2023-05-05T06:10:18.676Z,24.79
2023-05-05T06:11:05.324Z,24.99
2023-05-05T06:12:04.355Z,25.59
2023-05-05T06:13:04.447Z,27.10
2023-05-05T06:14:04.454Z,31.06
2023-05-05T06:15:04.504Z,28.54
2023-05-05T06:16:04.571Z,24.34
2023-05-05T06:17:04.613Z,27.14
2023-05-05T06:18:04.783Z,31.88
2023-05-05T06:19:04.709Z,28.38
2023-05-05T06:20:04.819Z,24.83
2023-05-05T06:21:04.912Z,27.67
2023-05-05T06:22:05.020Z,25.36
2023-05-05T06:23:05.152Z,27.60
2023-05-05T06:24:05.274Z,24.53
2023-05-05T06:25:07.929Z,26.32
2023-05-05T06:26:05.643Z,38.04
2023-05-05T06:27:05.764Z,49.49
2023-05-05T06:28:05.942Z,57.37
2023-05-05T06:29:05.951Z,62.29
2023-05-05T06:30:06.191Z,64.92
2023-05-05T06:31:06.103Z,68.83
2023-05-05T06:32:06.142Z,72.13
2023-05-05T06:33:06.278Z,75.21
2023-05-05T06:34:06.350Z,77.83
2023-05-05T06:35:06.421Z,79.30
2023-05-05T06:36:06.496Z,82.50
2023-05-05T06:37:06.698Z,85.64
2023-05-05T06:38:06.659Z,88.50
2023-05-05T06:39:06.642Z,91.93
2023-05-05T06:40:06.931Z,94.28
2023-05-05T06:41:07.467Z,95.44
2023-05-05T06:42:06.748Z,98.49
2023-05-05T06:43:06.789Z,101.96
2023-05-05T06:44:06.867Z,104.85
2023-05-05T06:45:06.945Z,108.22
2023-05-05T06:46:07.001Z,110.77
2023-05-05T06:47:07.161Z,113.96
2023-05-05T06:48:07.264Z,115.70
2023-05-05T06:49:08.026Z,118.26
2023-05-05T06:50:07.542Z,121.03
2023-05-05T06:51:07.415Z,124.44
2023-05-05T06:52:07.485Z,125.54
2023-05-05T06:53:07.545Z,129.12
2023-05-05T06:54:07.630Z,129.90
2023-05-05T06:55:07.708Z,134.10
2023-05-05T06:56:07.774Z,137.93
2023-05-05T06:57:07.848Z,140.27
2023-05-05T06:58:07.905Z,142.79
2023-05-05T06:59:07.965Z,143.37
2023-05-05T07:00:08.319Z,147.02
2023-05-05T07:01:08.234Z,151.94
2023-05-05T07:02:08.166Z,156.19
2023-05-05T07:03:08.249Z,158.59
2023-05-05T07:04:08.361Z,159.70
2023-05-05T07:05:08.328Z,163.10
2023-05-05T07:06:08.378Z,165.69
2023-05-05T07:07:08.446Z,168.49
2023-05-05T07:08:08.465Z,170.36
2023-05-05T07:09:08.532Z,172.68
2023-05-05T07:10:08.753Z,175.75
2023-05-05T07:11:08.603Z,177.80
2023-05-05T07:12:08.903Z,180.20
2023-05-05T07:13:08.702Z,183.36
2023-05-05T07:14:08.727Z,188.02
2023-05-05T07:15:23.475Z,190.62
2023-05-05T07:16:09.796Z,190.76
2023-05-05T07:17:08.899Z,191.36
2023-05-05T07:18:08.895Z,192.42
2023-05-05T07:19:08.993Z,194.05
2023-05-05T07:20:09.132Z,194.01
2023-05-05T07:21:08.836Z,191.21
2023-05-05T07:22:08.847Z,194.33
2023-05-05T07:23:08.849Z,194.66
2023-05-05T07:24:08.870Z,194.85
2023-05-05T07:25:08.877Z,194.99
2023-05-05T07:26:08.897Z,196.54
2023-05-05T07:27:08.923Z,198.86
2023-05-05T07:28:08.933Z,199.84
2023-05-05T07:29:08.912Z,201.72
2023-05-05T07:30:13.018Z,205.38
2023-05-05T07:31:09.970Z,205.49
2023-05-05T07:32:09.039Z,205.99
2023-05-05T07:33:09.058Z,207.18
2023-05-05T07:34:08.973Z,210.45
2023-05-05T07:35:09.024Z,215.13
2023-05-05T07:36:08.969Z,217.96
2023-05-05T07:37:09.898Z,220.16
2023-05-05T07:38:10.894Z,222.22
2023-05-05T07:39:08.996Z,223.09
2023-05-05T07:40:09.359Z,225.10
2023-05-05T07:41:09.013Z,229.16
2023-05-05T07:42:09.012Z,230.26
2023-05-05T07:43:09.015Z,232.88
2023-05-05T07:44:09.014Z,235.56
2023-05-05T07:45:09.023Z,236.08
2023-05-05T07:46:09.265Z,237.82
2023-05-05T07:47:09.014Z,239.34
2023-05-05T07:48:09.129Z,243.04
2023-05-05T07:49:09.139Z,243.52
2023-05-05T07:50:09.350Z,246.35
2023-05-05T07:51:09.017Z,249.55
2023-05-05T07:52:09.031Z,250.00
2023-05-05T07:53:14.496Z,248.99
2023-05-05T07:54:11.032Z,249.12
2023-05-05T07:55:09.015Z,249.66
2023-05-05T07:56:09.103Z,251.03
2023-05-05T07:57:09.035Z,252.80
2023-05-05T07:58:09.062Z,256.63
2023-05-05T07:59:09.036Z,250.00
2023-05-05T08:00:11.996Z,250.13
2023-05-05T08:01:09.037Z,250.81
2023-05-05T08:02:09.034Z,252.13
2023-05-05T08:03:11.688Z,254.63
2023-05-05T08:04:09.638Z,250.37
2023-05-05T08:05:09.822Z,251.76
2023-05-05T08:06:09.054Z,254.12
2023-05-05T08:07:09.051Z,258.81
2023-05-05T08:08:09.086Z,265.23
2023-05-05T08:09:09.051Z,258.15
2023-05-05T08:10:09.055Z,250.45
2023-05-05T08:11:09.070Z,250.00
2023-05-05T08:12:09.047Z,250.00
2023-05-05T08:13:09.081Z,248.87
2023-05-05T08:14:09.064Z,249.73
2023-05-05T08:15:09.354Z,245.43
2023-05-05T08:16:09.172Z,236.79
2023-05-05T08:17:09.110Z,230.33
2023-05-05T08:18:09.114Z,224.90
2023-05-05T08:19:21.173Z,216.78
2023-05-05T08:20:11.018Z,216.82
2023-05-05T08:21:10.007Z,216.96
2023-05-05T08:22:09.172Z,214.14
2023-05-05T08:23:09.189Z,212.14
2023-05-05T08:24:09.208Z,209.28
2023-05-05T08:25:09.337Z,209.18
2023-05-05T08:26:09.233Z,207.83
2023-05-05T08:27:09.237Z,207.49
2023-05-05T08:28:09.269Z,206.27
2023-05-05T08:29:09.496Z,205.98
2023-05-05T08:30:09.274Z,206.03
2023-05-05T08:31:09.330Z,205.64
2023-05-05T08:32:09.314Z,204.75
2023-05-05T08:33:09.344Z,204.34
2023-05-05T08:34:09.334Z,204.92
2023-05-05T08:35:09.531Z,204.80
2023-05-05T08:36:09.401Z,205.59
2023-05-05T08:37:09.360Z,204.84
2023-05-05T08:38:12.009Z,206.04
2023-05-05T08:39:10.427Z,205.26
2023-05-05T08:40:09.678Z,205.17
2023-05-05T08:41:10.516Z,205.00
2023-05-05T08:42:09.712Z,204.84
2023-05-05T08:43:09.753Z,204.87
2023-05-05T08:44:09.761Z,204.15
2023-05-05T08:45:10.689Z,204.88
2023-05-05T08:46:09.827Z,205.01
2023-05-05T08:47:09.999Z,204.87
2023-05-05T08:48:09.913Z,204.92
2023-05-05T08:49:09.938Z,204.96
2023-05-05T08:50:09.984Z,204.99
2023-05-05T08:51:10.037Z,204.56
2023-05-05T08:52:10.208Z,204.98
2023-05-05T08:53:10.103Z,204.26
2023-05-05T08:54:10.202Z,205.88
2023-05-05T08:55:10.230Z,205.86
2023-05-05T08:56:11.076Z,205.32
2023-05-05T08:57:10.273Z,205.30
2023-05-05T08:58:10.332Z,204.73
2023-05-05T08:59:10.367Z,205.31
2023-05-05T09:00:10.409Z,205.41
2023-05-05T09:01:10.484Z,204.68
2023-05-05T09:02:10.550Z,205.33
2023-05-05T09:03:10.673Z,204.97
2023-05-05T09:04:10.596Z,205.98
2023-05-05T09:05:10.683Z,205.08
2023-05-05T09:06:10.704Z,205.22
2023-05-05T09:07:10.718Z,205.42
2023-05-05T09:08:10.948Z,205.31
2023-05-05T09:09:10.813Z,205.06
2023-05-05T09:10:10.862Z,206.56
2023-05-05T09:11:10.915Z,205.44
2023-05-05T09:12:11.037Z,206.64
2023-05-05T09:13:11.042Z,204.61
2023-05-05T09:14:11.057Z,206.31
2023-05-05T09:15:11.124Z,206.11
2023-05-05T09:16:11.262Z,204.83
2023-05-05T09:17:11.238Z,205.74
2023-05-05T09:18:11.365Z,205.51
2023-05-05T09:19:11.398Z,205.13
2023-05-05T09:20:11.417Z,200.08
2023-05-05T09:21:11.494Z,200.27
2023-05-05T09:22:11.607Z,199.24
2023-05-05T09:23:11.627Z,198.52
2023-05-05T09:24:11.855Z,195.67
2023-05-05T09:25:11.733Z,196.30
2023-05-05T09:26:11.725Z,196.35
2023-05-05T09:27:11.728Z,196.36
2023-05-05T09:28:11.747Z,196.18
2023-05-05T09:29:11.758Z,193.30
2023-05-05T09:30:11.756Z,191.98
2023-05-05T09:31:11.822Z,190.49
2023-05-05T09:32:11.763Z,189.96
2023-05-05T09:33:11.805Z,188.40
2023-05-05T09:34:11.777Z,186.47
2023-05-05T09:35:11.852Z,186.66
2023-05-05T09:36:11.759Z,187.84
2023-05-05T09:37:12.577Z,188.45
2023-05-05T09:38:11.798Z,188.42
2023-05-05T09:39:11.802Z,187.25
2023-05-05T09:40:12.019Z,187.22
2023-05-05T09:41:11.800Z,188.04
2023-05-05T09:42:11.784Z,187.79
2023-05-05T09:43:11.831Z,187.33
2023-05-05T09:44:11.794Z,187.35
2023-05-05T09:45:11.807Z,186.45
2023-05-05T09:46:12.533Z,184.85
2023-05-05T09:47:26.081Z,184.80
2023-05-05T09:48:13.968Z,184.87
2023-05-05T09:49:11.852Z,184.98
2023-05-05T09:50:12.820Z,184.84
2023-05-05T09:51:11.816Z,185.11
2023-05-05T09:52:12.525Z,185.03
2023-05-05T09:53:11.833Z,184.92
2023-05-05T09:54:12.527Z,184.18
2023-05-05T09:55:11.839Z,185.60
2023-05-05T09:56:12.044Z,187.09
2023-05-05T09:57:11.854Z,189.54
2023-05-05T09:58:11.894Z,187.59
2023-05-05T09:59:11.919Z,187.42
2023-05-05T10:00:12.131Z,187.71
2023-05-05T10:01:11.992Z,189.05
2023-05-05T10:02:11.957Z,188.77
2023-05-05T10:03:11.856Z,188.65
2023-05-05T10:04:11.862Z,190.67
2023-05-05T10:05:11.882Z,188.28
2023-05-05T10:06:11.873Z,187.40
2023-05-05T10:07:11.867Z,190.18
2023-05-05T10:08:11.881Z,189.45
2023-05-05T10:09:11.879Z,189.82
2023-05-05T10:10:12.046Z,190.37
2023-05-05T10:11:11.881Z,191.51
2023-05-05T10:12:12.043Z,192.98
2023-05-05T10:13:12.009Z,194.34
2023-05-05T10:14:12.530Z,195.94
2023-05-05T10:15:11.917Z,196.37
2023-05-05T10:16:12.544Z,196.73
2023-05-05T10:17:12.453Z,196.95
2023-05-05T10:18:12.581Z,199.28
2023-05-05T10:19:11.936Z,201.00
2023-05-05T10:20:11.951Z,202.46
2023-05-05T10:21:12.540Z,204.72
2023-05-05T10:22:11.982Z,205.42
2023-05-05T10:23:11.981Z,207.38
2023-05-05T10:24:11.976Z,209.86
2023-05-05T10:25:12.083Z,212.27
2023-05-05T10:26:12.074Z,213.69
2023-05-05T10:27:12.715Z,215.26
2023-05-05T10:28:12.272Z,215.87
2023-05-05T10:29:12.324Z,217.90
2023-05-05T10:30:12.289Z,211.49
2023-05-05T10:31:24.576Z,213.43
2023-05-05T10:32:37.123Z,213.46
2023-05-05T10:33:30.167Z,213.51
2023-05-05T10:34:13.499Z,213.67
2023-05-05T10:35:12.305Z,214.25
2023-05-05T10:36:12.317Z,214.78
2023-05-05T10:37:12.286Z,215.13
2023-05-05T10:38:13.297Z,213.60
2023-05-05T10:39:13.044Z,213.99
2023-05-05T10:40:12.290Z,214.45
2023-05-05T10:41:12.260Z,215.95
2023-05-05T10:42:12.242Z,220.42
2023-05-05T10:43:12.552Z,223.31
2023-05-05T10:44:12.254Z,226.49
2023-05-05T10:45:12.225Z,226.39
2023-05-05T10:46:12.223Z,229.82
2023-05-05T10:47:12.188Z,230.19
2023-05-05T10:48:12.237Z,230.29
2023-05-05T10:49:13.249Z,232.01
2023-05-05T10:50:12.177Z,233.42
2023-05-05T10:51:12.147Z,236.14
2023-05-05T10:52:12.143Z,234.37
2023-05-05T10:53:12.118Z,236.56
2023-05-05T10:54:12.133Z,236.90
2023-05-05T10:55:12.093Z,235.99
2023-05-05T10:56:13.053Z,236.40
2023-05-05T10:57:12.057Z,237.13
2023-05-05T10:58:12.052Z,236.61
2023-05-05T10:59:12.999Z,237.68
2023-05-05T11:00:14.578Z,238.55
2023-05-05T11:01:12.027Z,240.02
2023-05-05T11:02:12.059Z,242.24
2023-05-05T11:03:12.059Z,245.01
2023-05-05T11:04:11.963Z,245.26
2023-05-05T11:05:11.958Z,245.82
2023-05-05T11:06:11.921Z,246.37
2023-05-05T11:07:14.690Z,245.68
2023-05-05T11:08:11.893Z,245.76
2023-05-05T11:09:11.882Z,246.00
2023-05-05T11:10:12.012Z,246.28
2023-05-05T11:11:11.859Z,246.62
2023-05-05T11:12:11.856Z,247.45
2023-05-05T11:13:11.940Z,248.22
2023-05-05T11:14:11.822Z,248.28
2023-05-05T11:15:11.838Z,247.41
2023-05-05T11:16:11.848Z,247.34
2023-05-05T11:17:11.823Z,247.57
2023-05-05T11:18:11.860Z,247.63
2023-05-05T11:19:11.810Z,247.83
2023-05-05T11:20:11.801Z,246.89
2023-05-05T11:21:11.793Z,247.46
2023-05-05T11:22:11.866Z,247.50
2023-05-05T11:23:12.588Z,247.31
2023-05-05T11:24:11.787Z,247.45
2023-05-05T11:25:11.792Z,247.62
2023-05-05T11:26:12.780Z,247.65
2023-05-05T11:27:11.772Z,247.67
2023-05-05T11:28:11.898Z,247.72
2023-05-05T11:29:12.617Z,246.99
2023-05-05T11:30:11.855Z,246.50
2023-05-05T11:31:11.780Z,246.30
2023-05-05T11:32:11.813Z,246.65
2023-05-05T11:33:11.743Z,245.65
2023-05-05T11:34:11.752Z,245.77
2023-05-05T11:35:11.836Z,246.06
2023-05-05T11:36:11.764Z,245.95
2023-05-05T11:37:11.789Z,245.91
2023-05-05T11:38:12.107Z,245.38
2023-05-05T11:39:11.934Z,245.81
2023-05-05T11:40:12.063Z,245.60
2023-05-05T11:41:12.021Z,244.78
2023-05-05T11:42:12.069Z,245.64
2023-05-05T11:43:12.119Z,245.37
2023-05-05T11:44:12.193Z,245.05
2023-05-05T11:45:12.242Z,244.93
2023-05-05T11:46:12.373Z,244.41
2023-05-05T11:47:12.336Z,245.14
2023-05-05T11:48:12.518Z,244.50
2023-05-05T11:49:12.442Z,244.05
2023-05-05T11:50:12.506Z,244.40
2023-05-05T11:51:12.552Z,244.49
2023-05-05T11:52:12.626Z,243.50
2023-05-05T11:53:12.659Z,244.75
2023-05-05T11:54:12.719Z,243.43
2023-05-05T11:55:12.773Z,242.94
2023-05-05T11:56:12.837Z,243.33
2023-05-05T11:57:12.885Z,243.46
2023-05-05T11:58:12.926Z,242.77
2023-05-05T11:59:12.969Z,242.79
2023-05-05T12:00:13.077Z,243.27
2023-05-05T12:01:13.061Z,242.60
2023-05-05T12:02:13.098Z,242.60
2023-05-05T12:03:13.179Z,241.74
2023-05-05T12:04:13.349Z,241.26
2023-05-05T12:05:13.226Z,242.60
2023-05-05T12:06:13.260Z,241.76
2023-05-05T12:07:13.306Z,242.19
2023-05-05T12:08:13.343Z,241.74
2023-05-05T12:09:13.382Z,242.13
2023-05-05T12:10:13.422Z,241.71
2023-05-05T12:11:13.450Z,240.96
2023-05-05T12:12:13.498Z,242.15
2023-05-05T12:13:13.576Z,242.06
2023-05-05T12:14:13.563Z,241.11
2023-05-05T12:15:14.582Z,240.86
2023-05-05T12:16:13.662Z,240.60
2023-05-05T12:17:13.661Z,240.78
2023-05-05T12:18:13.750Z,240.67
2023-05-05T12:19:13.728Z,240.21
2023-05-05T12:20:13.976Z,241.14
2023-05-05T12:21:13.803Z,240.16
2023-05-05T12:22:13.831Z,241.36
2023-05-05T12:23:13.853Z,240.71
2023-05-05T12:24:13.871Z,240.82
2023-05-05T12:25:13.906Z,239.41
2023-05-05T12:26:13.925Z,240.23
2023-05-05T12:27:13.954Z,239.65
2023-05-05T12:28:13.993Z,239.13
2023-05-05T12:29:14.008Z,240.06
2023-05-05T12:30:14.045Z,239.96
2023-05-05T12:31:14.237Z,238.82
2023-05-05T12:32:14.302Z,239.25
2023-05-05T12:33:14.087Z,238.67
2023-05-05T12:34:14.176Z,238.84
2023-05-05T12:35:14.127Z,238.94
2023-05-05T12:36:14.250Z,239.01
2023-05-05T12:37:14.159Z,239.24
2023-05-05T12:38:14.183Z,238.59
2023-05-05T12:39:14.197Z,238.27
2023-05-05T12:40:14.215Z,238.84
2023-05-05T12:41:14.239Z,238.06
2023-05-05T12:42:14.243Z,238.90